sensor_id;sensor_type;location;lat;lon;timestamp;pressure;altitude;pressure_sealevel;temperature
22828;BMP180;11580;52.562;13.418;2023-04-03T00:00:56;102020.00;;;4.80
22828;BMP180;11580;52.562;13.418;2023-04-03T00:03:24;102025.00;;;4.80
22828;BMP180;11580;52.562;13.418;2023-04-03T00:05:51;102024.00;;;4.80
22828;BMP180;11580;52.562;13.418;2023-04-03T00:08:19;102017.00;;;4.80
22828;BMP180;11580;52.562;13.418;2023-04-03T00:10:46;102020.00;;;4.80
22828;BMP180;11580;52.562;13.418;2023-04-03T00:13:14;102024.00;;;4.80
22828;BMP180;11580;52.562;13.418;2023-04-03T00:15:42;102016.00;;;4.80
22828;BMP180;11580;52.562;13.418;2023-04-03T00:18:09;102023.00;;;4.80
22828;BMP180;11580;52.562;13.418;2023-04-03T00:20:38;102020.00;;;4.80
22828;BMP180;11580;52.562;13.418;2023-04-03T00:23:05;102025.00;;;4.70
22828;BMP180;11580;52.562;13.418;2023-04-03T00:25:32;102022.00;;;4.70
22828;BMP180;11580;52.562;13.418;2023-04-03T00:27:59;102022.00;;;4.70
22828;BMP180;11580;52.562;13.418;2023-04-03T00:30:26;102023.00;;;4.70
22828;BMP180;11580;52.562;13.418;2023-04-03T00:32:54;102015.00;;;4.70
22828;BMP180;11580;52.562;13.418;2023-04-03T00:35:22;102025.00;;;4.70
22828;BMP180;11580;52.562;13.418;2023-04-03T00:37:54;102028.00;;;4.70
22828;BMP180;11580;52.562;13.418;2023-04-03T00:40:23;102021.00;;;4.70
22828;BMP180;11580;52.562;13.418;2023-04-03T00:42:57;102011.00;;;4.70
22828;BMP180;11580;52.562;13.418;2023-04-03T00:45:34;101931.00;;;4.70
22828;BMP180;11580;52.562;13.418;2023-04-03T00:48:06;102025.00;;;4.70
22828;BMP180;11580;52.562;13.418;2023-04-03T00:50:37;102022.00;;;4.70
22828;BMP180;11580;52.562;13.418;2023-04-03T00:53:11;102017.00;;;4.60
22828;BMP180;11580;52.562;13.418;2023-04-03T00:55:39;102020.00;;;4.60
22828;BMP180;11580;52.562;13.418;2023-04-03T00:58:08;102004.00;;;4.60
22828;BMP180;11580;52.562;13.418;2023-04-03T01:00:40;102022.00;;;4.60
22828;BMP180;11580;52.562;13.418;2023-04-03T01:03:08;102024.00;;;4.50
22828;BMP180;11580;52.562;13.418;2023-04-03T01:05:39;102019.00;;;4.50
22828;BMP180;11580;52.562;13.418;2023-04-03T01:08:08;102018.00;;;4.50
22828;BMP180;11580;52.562;13.418;2023-04-03T01:10:36;102017.00;;;4.50
22828;BMP180;11580;52.562;13.418;2023-04-03T01:13:21;102020.00;;;4.50
22828;BMP180;11580;52.562;13.418;2023-04-03T01:15:50;102020.00;;;4.50
22828;BMP180;11580;52.562;13.418;2023-04-03T01:18:17;102029.00;;;4.50
22828;BMP180;11580;52.562;13.418;2023-04-03T01:21:41;102022.00;;;4.50
22828;BMP180;11580;52.562;13.418;2023-04-03T01:24:32;102026.00;;;4.50
22828;BMP180;11580;52.562;13.418;2023-04-03T01:27:04;102033.00;;;4.50
22828;BMP180;11580;52.562;13.418;2023-04-03T01:29:32;102023.00;;;4.50
22828;BMP180;11580;52.562;13.418;2023-04-03T01:32:02;102021.00;;;4.40
22828;BMP180;11580;52.562;13.418;2023-04-03T01:34:31;102023.00;;;4.40
22828;BMP180;11580;52.562;13.418;2023-04-03T01:36:59;102035.00;;;4.40
22828;BMP180;11580;52.562;13.418;2023-04-03T01:39:26;102027.00;;;4.40
22828;BMP180;11580;52.562;13.418;2023-04-03T01:41:53;102033.00;;;4.40
22828;BMP180;11580;52.562;13.418;2023-04-03T01:44:27;102044.00;;;4.40
22828;BMP180;11580;52.562;13.418;2023-04-03T01:46:55;102037.00;;;4.40
22828;BMP180;11580;52.562;13.418;2023-04-03T01:49:25;102041.00;;;4.40
22828;BMP180;11580;52.562;13.418;2023-04-03T01:51:52;102053.00;;;4.40
22828;BMP180;11580;52.562;13.418;2023-04-03T01:54:19;102041.00;;;4.30
22828;BMP180;11580;52.562;13.418;2023-04-03T01:56:46;102044.00;;;4.30
22828;BMP180;11580;52.562;13.418;2023-04-03T01:59:14;102044.00;;;4.30
22828;BMP180;11580;52.562;13.418;2023-04-03T02:01:43;102054.00;;;4.30
22828;BMP180;11580;52.562;13.418;2023-04-03T02:04:12;102050.00;;;4.30
22828;BMP180;11580;52.562;13.418;2023-04-03T02:06:42;102043.00;;;4.20
22828;BMP180;11580;52.562;13.418;2023-04-03T02:09:09;102051.00;;;4.20
22828;BMP180;11580;52.562;13.418;2023-04-03T02:11:36;102046.00;;;4.20
22828;BMP180;11580;52.562;13.418;2023-04-03T02:14:03;102046.00;;;4.20
22828;BMP180;11580;52.562;13.418;2023-04-03T02:16:31;102046.00;;;4.20
22828;BMP180;11580;52.562;13.418;2023-04-03T02:18:58;102041.00;;;4.20
22828;BMP180;11580;52.562;13.418;2023-04-03T02:21:25;101998.00;;;4.20
22828;BMP180;11580;52.562;13.418;2023-04-03T02:23:55;102057.00;;;4.20
22828;BMP180;11580;52.562;13.418;2023-04-03T02:26:23;102058.00;;;4.20
22828;BMP180;11580;52.562;13.418;2023-04-03T02:28:50;102059.00;;;4.10
22828;BMP180;11580;52.562;13.418;2023-04-03T02:31:18;102033.00;;;4.10
22828;BMP180;11580;52.562;13.418;2023-04-03T02:33:46;102056.00;;;4.10
22828;BMP180;11580;52.562;13.418;2023-04-03T02:36:15;102066.00;;;4.10
22828;BMP180;11580;52.562;13.418;2023-04-03T02:38:46;102073.00;;;4.10
22828;BMP180;11580;52.562;13.418;2023-04-03T02:41:15;102075.00;;;4.10
22828;BMP180;11580;52.562;13.418;2023-04-03T02:43:42;102069.00;;;4.10
22828;BMP180;11580;52.562;13.418;2023-04-03T02:46:10;102072.00;;;4.10
22828;BMP180;11580;52.562;13.418;2023-04-03T02:48:37;102073.00;;;4.10
22828;BMP180;11580;52.562;13.418;2023-04-03T02:51:04;102079.00;;;4.00
22828;BMP180;11580;52.562;13.418;2023-04-03T02:53:32;102077.00;;;4.00
22828;BMP180;11580;52.562;13.418;2023-04-03T02:56:06;102080.00;;;4.00
22828;BMP180;11580;52.562;13.418;2023-04-03T02:58:34;102083.00;;;4.00
22828;BMP180;11580;52.562;13.418;2023-04-03T03:01:03;102084.00;;;4.00
22828;BMP180;11580;52.562;13.418;2023-04-03T03:03:30;102091.00;;;4.00
22828;BMP180;11580;52.562;13.418;2023-04-03T03:06:02;102083.00;;;3.90
22828;BMP180;11580;52.562;13.418;2023-04-03T03:08:30;102087.00;;;3.90
22828;BMP180;11580;52.562;13.418;2023-04-03T03:10:57;102082.00;;;3.90
22828;BMP180;11580;52.562;13.418;2023-04-03T03:13:24;102093.00;;;3.90
22828;BMP180;11580;52.562;13.418;2023-04-03T03:15:53;102090.00;;;3.90
22828;BMP180;11580;52.562;13.418;2023-04-03T03:18:21;102083.00;;;3.90
22828;BMP180;11580;52.562;13.418;2023-04-03T03:20:51;102083.00;;;3.80
22828;BMP180;11580;52.562;13.418;2023-04-03T03:23:20;102086.00;;;3.80
22828;BMP180;11580;52.562;13.418;2023-04-03T03:25:47;102093.00;;;3.80
22828;BMP180;11580;52.562;13.418;2023-04-03T03:28:15;102083.00;;;3.80
22828;BMP180;11580;52.562;13.418;2023-04-03T03:30:42;102089.00;;;3.80
22828;BMP180;11580;52.562;13.418;2023-04-03T03:33:11;102092.00;;;3.80
22828;BMP180;11580;52.562;13.418;2023-04-03T03:35:38;102097.00;;;3.80
22828;BMP180;11580;52.562;13.418;2023-04-03T03:38:06;102092.00;;;3.80
22828;BMP180;11580;52.562;13.418;2023-04-03T03:40:33;102100.00;;;3.80
22828;BMP180;11580;52.562;13.418;2023-04-03T03:43:00;102097.00;;;3.80
22828;BMP180;11580;52.562;13.418;2023-04-03T03:45:27;102103.00;;;3.80
22828;BMP180;11580;52.562;13.418;2023-04-03T03:47:54;102096.00;;;3.80
22828;BMP180;11580;52.562;13.418;2023-04-03T03:50:23;102110.00;;;3.80
22828;BMP180;11580;52.562;13.418;2023-04-03T03:52:50;102099.00;;;3.70
22828;BMP180;11580;52.562;13.418;2023-04-03T03:55:18;102093.00;;;3.70
22828;BMP180;11580;52.562;13.418;2023-04-03T03:57:50;102094.00;;;3.70
22828;BMP180;11580;52.562;13.418;2023-04-03T04:00:18;102100.00;;;3.70
22828;BMP180;11580;52.562;13.418;2023-04-03T04:02:51;102093.00;;;3.70
22828;BMP180;11580;52.562;13.418;2023-04-03T04:05:23;102095.00;;;3.70
22828;BMP180;11580;52.562;13.418;2023-04-03T04:07:51;102087.00;;;3.70
22828;BMP180;11580;52.562;13.418;2023-04-03T04:10:18;102092.00;;;3.70
22828;BMP180;11580;52.562;13.418;2023-04-03T04:12:46;102086.00;;;3.70
22828;BMP180;11580;52.562;13.418;2023-04-03T04:15:15;102095.00;;;3.80
22828;BMP180;11580;52.562;13.418;2023-04-03T04:17:43;102087.00;;;3.70
22828;BMP180;11580;52.562;13.418;2023-04-03T04:20:11;102088.00;;;3.70
22828;BMP180;11580;52.562;13.418;2023-04-03T04:22:41;102088.00;;;3.70
22828;BMP180;11580;52.562;13.418;2023-04-03T04:25:09;102098.00;;;3.70
22828;BMP180;11580;52.562;13.418;2023-04-03T04:27:38;102095.00;;;3.70
22828;BMP180;11580;52.562;13.418;2023-04-03T04:30:07;102096.00;;;3.70
22828;BMP180;11580;52.562;13.418;2023-04-03T04:32:35;102094.00;;;3.70
22828;BMP180;11580;52.562;13.418;2023-04-03T04:35:04;102098.00;;;3.70
22828;BMP180;11580;52.562;13.418;2023-04-03T04:37:32;102091.00;;;3.70
22828;BMP180;11580;52.562;13.418;2023-04-03T04:40:02;102101.00;;;3.70
22828;BMP180;11580;52.562;13.418;2023-04-03T04:42:30;102095.00;;;3.70
22828;BMP180;11580;52.562;13.418;2023-04-03T04:44:57;102103.00;;;3.70
22828;BMP180;11580;52.562;13.418;2023-04-03T04:47:24;102101.00;;;3.80
22828;BMP180;11580;52.562;13.418;2023-04-03T04:49:51;102117.00;;;3.80
22828;BMP180;11580;52.562;13.418;2023-04-03T04:52:19;102112.00;;;3.80
22828;BMP180;11580;52.562;13.418;2023-04-03T04:54:47;102112.00;;;3.80
22828;BMP180;11580;52.562;13.418;2023-04-03T04:57:15;102113.00;;;3.80
22828;BMP180;11580;52.562;13.418;2023-04-03T04:59:43;102120.00;;;3.80
22828;BMP180;11580;52.562;13.418;2023-04-03T05:02:11;102115.00;;;3.90
22828;BMP180;11580;52.562;13.418;2023-04-03T05:04:40;102128.00;;;3.90
22828;BMP180;11580;52.562;13.418;2023-04-03T05:07:13;102125.00;;;3.90
22828;BMP180;11580;52.562;13.418;2023-04-03T05:09:40;102129.00;;;3.90
22828;BMP180;11580;52.562;13.418;2023-04-03T05:12:09;102130.00;;;4.00
22828;BMP180;11580;52.562;13.418;2023-04-03T05:14:43;102127.00;;;4.00
22828;BMP180;11580;52.562;13.418;2023-04-03T05:17:11;102129.00;;;4.10
22828;BMP180;11580;52.562;13.418;2023-04-03T05:19:43;102134.00;;;4.10
22828;BMP180;11580;52.562;13.418;2023-04-03T05:22:11;102136.00;;;4.10
22828;BMP180;11580;52.562;13.418;2023-04-03T05:24:39;102133.00;;;4.10
22828;BMP180;11580;52.562;13.418;2023-04-03T05:27:07;102136.00;;;4.10
22828;BMP180;11580;52.562;13.418;2023-04-03T05:29:38;102139.00;;;4.20
22828;BMP180;11580;52.562;13.418;2023-04-03T05:32:11;102138.00;;;4.20
22828;BMP180;11580;52.562;13.418;2023-04-03T05:34:38;102146.00;;;4.20
22828;BMP180;11580;52.562;13.418;2023-04-03T05:37:06;102140.00;;;4.20
22828;BMP180;11580;52.562;13.418;2023-04-03T05:39:34;102145.00;;;4.30
22828;BMP180;11580;52.562;13.418;2023-04-03T05:42:03;102157.00;;;4.30
22828;BMP180;11580;52.562;13.418;2023-04-03T05:44:31;102153.00;;;4.40
22828;BMP180;11580;52.562;13.418;2023-04-03T05:46:58;102140.00;;;4.40
22828;BMP180;11580;52.562;13.418;2023-04-03T05:49:27;102160.00;;;4.50
22828;BMP180;11580;52.562;13.418;2023-04-03T05:51:54;102154.00;;;4.50
22828;BMP180;11580;52.562;13.418;2023-04-03T05:54:27;102162.00;;;4.50
22828;BMP180;11580;52.562;13.418;2023-04-03T05:57:02;102166.00;;;4.50
22828;BMP180;11580;52.562;13.418;2023-04-03T05:59:29;102161.00;;;4.50
22828;BMP180;11580;52.562;13.418;2023-04-03T06:01:58;102166.00;;;4.60
22828;BMP180;11580;52.562;13.418;2023-04-03T06:04:28;102172.00;;;4.60
22828;BMP180;11580;52.562;13.418;2023-04-03T06:06:57;102178.00;;;4.60
22828;BMP180;11580;52.562;13.418;2023-04-03T06:09:28;102175.00;;;4.70
22828;BMP180;11580;52.562;13.418;2023-04-03T06:11:56;102177.00;;;4.70
22828;BMP180;11580;52.562;13.418;2023-04-03T06:14:25;102184.00;;;4.80
22828;BMP180;11580;52.562;13.418;2023-04-03T06:16:52;102177.00;;;4.80
22828;BMP180;11580;52.562;13.418;2023-04-03T06:19:20;102191.00;;;4.90
22828;BMP180;11580;52.562;13.418;2023-04-03T06:21:52;102179.00;;;5.00
22828;BMP180;11580;52.562;13.418;2023-04-03T06:24:20;102186.00;;;5.00
22828;BMP180;11580;52.562;13.418;2023-04-03T06:26:50;102197.00;;;5.10
22828;BMP180;11580;52.562;13.418;2023-04-03T06:29:18;102197.00;;;5.10
22828;BMP180;11580;52.562;13.418;2023-04-03T06:31:46;102190.00;;;5.20
22828;BMP180;11580;52.562;13.418;2023-04-03T06:34:14;102188.00;;;5.20
22828;BMP180;11580;52.562;13.418;2023-04-03T06:36:41;102189.00;;;5.30
22828;BMP180;11580;52.562;13.418;2023-04-03T06:39:14;102194.00;;;5.40
22828;BMP180;11580;52.562;13.418;2023-04-03T06:41:42;102197.00;;;5.50
22828;BMP180;11580;52.562;13.418;2023-04-03T06:44:10;102192.00;;;5.50
22828;BMP180;11580;52.562;13.418;2023-04-03T06:46:39;102201.00;;;5.60
22828;BMP180;11580;52.562;13.418;2023-04-03T06:49:06;102206.00;;;5.60
22828;BMP180;11580;52.562;13.418;2023-04-03T06:51:35;102192.00;;;5.70
22828;BMP180;11580;52.562;13.418;2023-04-03T06:54:05;102206.00;;;5.80
22828;BMP180;11580;52.562;13.418;2023-04-03T06:56:35;102214.00;;;5.80
22828;BMP180;11580;52.562;13.418;2023-04-03T06:59:03;102217.00;;;5.90
22828;BMP180;11580;52.562;13.418;2023-04-03T07:01:31;102217.00;;;5.90
22828;BMP180;11580;52.562;13.418;2023-04-03T07:03:58;102221.00;;;6.00
22828;BMP180;11580;52.562;13.418;2023-04-03T07:06:25;102225.00;;;6.20
22828;BMP180;11580;52.562;13.418;2023-04-03T07:08:53;102238.00;;;6.30
22828;BMP180;11580;52.562;13.418;2023-04-03T07:11:21;102239.00;;;6.40
22828;BMP180;11580;52.562;13.418;2023-04-03T07:13:50;102237.00;;;6.50
22828;BMP180;11580;52.562;13.418;2023-04-03T07:16:18;102235.00;;;6.60
22828;BMP180;11580;52.562;13.418;2023-04-03T07:18:45;102237.00;;;6.90
22828;BMP180;11580;52.562;13.418;2023-04-03T07:21:13;102251.00;;;7.00
22828;BMP180;11580;52.562;13.418;2023-04-03T07:23:40;102246.00;;;7.20
22828;BMP180;11580;52.562;13.418;2023-04-03T07:26:08;102255.00;;;7.40
22828;BMP180;11580;52.562;13.418;2023-04-03T07:28:35;102248.00;;;7.50
22828;BMP180;11580;52.562;13.418;2023-04-03T07:31:06;102261.00;;;7.70
22828;BMP180;11580;52.562;13.418;2023-04-03T07:33:35;102256.00;;;7.80
22828;BMP180;11580;52.562;13.418;2023-04-03T07:36:04;102253.00;;;7.80
22828;BMP180;11580;52.562;13.418;2023-04-03T07:38:32;102271.00;;;7.80
22828;BMP180;11580;52.562;13.418;2023-04-03T07:41:00;102254.00;;;7.80
22828;BMP180;11580;52.562;13.418;2023-04-03T07:43:27;102260.00;;;7.90
22828;BMP180;11580;52.562;13.418;2023-04-03T07:45:54;102261.00;;;7.90
22828;BMP180;11580;52.562;13.418;2023-04-03T07:48:25;102261.00;;;8.00
22828;BMP180;11580;52.562;13.418;2023-04-03T07:50:52;102263.00;;;8.10
22828;BMP180;11580;52.562;13.418;2023-04-03T07:53:19;102271.00;;;8.20
22828;BMP180;11580;52.562;13.418;2023-04-03T07:55:48;102261.00;;;8.20
22828;BMP180;11580;52.562;13.418;2023-04-03T07:58:18;102276.00;;;8.20
22828;BMP180;11580;52.562;13.418;2023-04-03T08:00:46;102266.00;;;8.30
22828;BMP180;11580;52.562;13.418;2023-04-03T08:03:15;102271.00;;;8.30
22828;BMP180;11580;52.562;13.418;2023-04-03T08:05:46;102264.00;;;8.30
22828;BMP180;11580;52.562;13.418;2023-04-03T08:08:17;102267.00;;;8.40
22828;BMP180;11580;52.562;13.418;2023-04-03T08:10:48;102287.00;;;8.40
22828;BMP180;11580;52.562;13.418;2023-04-03T08:13:15;102280.00;;;8.50
22828;BMP180;11580;52.562;13.418;2023-04-03T08:15:42;102260.00;;;8.50
22828;BMP180;11580;52.562;13.418;2023-04-03T08:18:09;102274.00;;;8.60
22828;BMP180;11580;52.562;13.418;2023-04-03T08:20:38;102272.00;;;8.60
22828;BMP180;11580;52.562;13.418;2023-04-03T08:23:07;102284.00;;;8.70
22828;BMP180;11580;52.562;13.418;2023-04-03T08:25:38;102276.00;;;8.70
22828;BMP180;11580;52.562;13.418;2023-04-03T08:28:06;102287.00;;;8.70
22828;BMP180;11580;52.562;13.418;2023-04-03T08:30:33;102275.00;;;8.80
22828;BMP180;11580;52.562;13.418;2023-04-03T08:33:02;102267.00;;;8.80
22828;BMP180;11580;52.562;13.418;2023-04-03T08:35:30;102271.00;;;8.80
22828;BMP180;11580;52.562;13.418;2023-04-03T08:37:57;102270.00;;;8.80
22828;BMP180;11580;52.562;13.418;2023-04-03T08:40:26;102282.00;;;8.90
22828;BMP180;11580;52.562;13.418;2023-04-03T08:43:06;102261.00;;;9.00
22828;BMP180;11580;52.562;13.418;2023-04-03T08:45:45;102260.00;;;9.10
22828;BMP180;11580;52.562;13.418;2023-04-03T08:48:18;102264.00;;;9.20
22828;BMP180;11580;52.562;13.418;2023-04-03T08:50:51;102285.00;;;9.40
22828;BMP180;11580;52.562;13.418;2023-04-03T08:53:25;102264.00;;;9.50
22828;BMP180;11580;52.562;13.418;2023-04-03T08:55:56;102281.00;;;9.40
22828;BMP180;11580;52.562;13.418;2023-04-03T08:58:27;102268.00;;;9.50
22828;BMP180;11580;52.562;13.418;2023-04-03T09:00:59;102281.00;;;9.50
22828;BMP180;11580;52.562;13.418;2023-04-03T09:03:30;102272.00;;;9.40
22828;BMP180;11580;52.562;13.418;2023-04-03T09:06:05;102269.00;;;9.20
22828;BMP180;11580;52.562;13.418;2023-04-03T09:08:40;102277.00;;;9.00
22828;BMP180;11580;52.562;13.418;2023-04-03T09:11:19;102271.00;;;8.90
22828;BMP180;11580;52.562;13.418;2023-04-03T09:13:58;102268.00;;;8.80
22828;BMP180;11580;52.562;13.418;2023-04-03T09:16:42;102262.00;;;8.80
22828;BMP180;11580;52.562;13.418;2023-04-03T09:19:21;102268.00;;;8.70
22828;BMP180;11580;52.562;13.418;2023-04-03T09:21:49;102271.00;;;8.70
22828;BMP180;11580;52.562;13.418;2023-04-03T09:24:17;102280.00;;;8.70
22828;BMP180;11580;52.562;13.418;2023-04-03T09:26:54;102274.00;;;8.70
22828;BMP180;11580;52.562;13.418;2023-04-03T09:29:25;102257.00;;;8.70
22828;BMP180;11580;52.562;13.418;2023-04-03T09:31:57;102274.00;;;8.70
22828;BMP180;11580;52.562;13.418;2023-04-03T09:34:29;102275.00;;;8.80
22828;BMP180;11580;52.562;13.418;2023-04-03T09:36:59;102273.00;;;8.80
22828;BMP180;11580;52.562;13.418;2023-04-03T09:39:49;102264.00;;;8.80
22828;BMP180;11580;52.562;13.418;2023-04-03T09:42:21;102274.00;;;8.80
22828;BMP180;11580;52.562;13.418;2023-04-03T09:44:55;102265.00;;;8.80
22828;BMP180;11580;52.562;13.418;2023-04-03T09:47:26;102272.00;;;8.80
22828;BMP180;11580;52.562;13.418;2023-04-03T09:50:19;102263.00;;;8.90
22828;BMP180;11580;52.562;13.418;2023-04-03T09:52:50;102259.00;;;9.00
22828;BMP180;11580;52.562;13.418;2023-04-03T09:55:21;102263.00;;;9.10
22828;BMP180;11580;52.562;13.418;2023-04-03T09:57:57;102259.00;;;9.20
22828;BMP180;11580;52.562;13.418;2023-04-03T10:00:30;102270.00;;;9.30
22828;BMP180;11580;52.562;13.418;2023-04-03T10:02:58;102261.00;;;9.50
22828;BMP180;11580;52.562;13.418;2023-04-03T10:05:35;102257.00;;;9.60
22828;BMP180;11580;52.562;13.418;2023-04-03T10:08:19;102239.00;;;9.70
22828;BMP180;11580;52.562;13.418;2023-04-03T10:10:49;102256.00;;;9.70
22828;BMP180;11580;52.562;13.418;2023-04-03T10:13:33;102261.00;;;9.80
22828;BMP180;11580;52.562;13.418;2023-04-03T10:16:06;102250.00;;;9.80
22828;BMP180;11580;52.562;13.418;2023-04-03T10:18:44;102256.00;;;9.90
22828;BMP180;11580;52.562;13.418;2023-04-03T10:21:32;102263.00;;;10.00
22828;BMP180;11580;52.562;13.418;2023-04-03T10:24:10;102245.00;;;10.10
22828;BMP180;11580;52.562;13.418;2023-04-03T10:26:50;102245.00;;;10.30
22828;BMP180;11580;52.562;13.418;2023-04-03T10:29:40;102246.00;;;10.30
22828;BMP180;11580;52.562;13.418;2023-04-03T10:35:28;102243.00;;;10.50
22828;BMP180;11580;52.562;13.418;2023-04-03T10:38:09;102239.00;;;10.70
22828;BMP180;11580;52.562;13.418;2023-04-03T10:40:51;102237.00;;;10.80
22828;BMP180;11580;52.562;13.418;2023-04-03T10:43:30;102237.00;;;10.90
22828;BMP180;11580;52.562;13.418;2023-04-03T10:46:07;102245.00;;;11.00
22828;BMP180;11580;52.562;13.418;2023-04-03T10:49:09;102230.00;;;11.00
22828;BMP180;11580;52.562;13.418;2023-04-03T10:51:44;102227.00;;;10.90
22828;BMP180;11580;52.562;13.418;2023-04-03T10:54:19;102231.00;;;10.90
22828;BMP180;11580;52.562;13.418;2023-04-03T10:56:52;102224.00;;;11.00
22828;BMP180;11580;52.562;13.418;2023-04-03T10:59:28;102234.00;;;11.00
22828;BMP180;11580;52.562;13.418;2023-04-03T11:02:04;102217.00;;;10.90
22828;BMP180;11580;52.562;13.418;2023-04-03T11:04:37;102220.00;;;10.80
22828;BMP180;11580;52.562;13.418;2023-04-03T11:07:13;102206.00;;;10.80
22828;BMP180;11580;52.562;13.418;2023-04-03T11:09:47;102205.00;;;10.80
22828;BMP180;11580;52.562;13.418;2023-04-03T11:12:23;102209.00;;;10.80
22828;BMP180;11580;52.562;13.418;2023-04-03T11:14:54;102203.00;;;10.70
22828;BMP180;11580;52.562;13.418;2023-04-03T11:17:31;102193.00;;;10.70
22828;BMP180;11580;52.562;13.418;2023-04-03T11:20:10;102205.00;;;10.80
22828;BMP180;11580;52.562;13.418;2023-04-03T11:22:45;102198.00;;;10.80
22828;BMP180;11580;52.562;13.418;2023-04-03T11:25:19;102218.00;;;10.80
22828;BMP180;11580;52.562;13.418;2023-04-03T11:27:55;102210.00;;;10.90
22828;BMP180;11580;52.562;13.418;2023-04-03T11:30:28;102223.00;;;10.90
22828;BMP180;11580;52.562;13.418;2023-04-03T11:36:02;102202.00;;;10.80
22828;BMP180;11580;52.562;13.418;2023-04-03T11:38:35;102205.00;;;10.80
22828;BMP180;11580;52.562;13.418;2023-04-03T11:41:07;102208.00;;;10.90
22828;BMP180;11580;52.562;13.418;2023-04-03T11:43:43;102214.00;;;11.00
22828;BMP180;11580;52.562;13.418;2023-04-03T11:46:22;102206.00;;;11.00
22828;BMP180;11580;52.562;13.418;2023-04-03T11:48:52;102214.00;;;11.00
22828;BMP180;11580;52.562;13.418;2023-04-03T11:51:52;102207.00;;;11.00
22828;BMP180;11580;52.562;13.418;2023-04-03T11:54:52;102222.00;;;11.00
22828;BMP180;11580;52.562;13.418;2023-04-03T11:58:04;102211.00;;;10.90
22828;BMP180;11580;52.562;13.418;2023-04-03T12:01:07;102206.00;;;10.90
22828;BMP180;11580;52.562;13.418;2023-04-03T12:04:12;102209.00;;;10.90
22828;BMP180;11580;52.562;13.418;2023-04-03T12:07:18;102220.00;;;10.90
22828;BMP180;11580;52.562;13.418;2023-04-03T12:10:17;102187.00;;;10.90
22828;BMP180;11580;52.562;13.418;2023-04-03T12:12:57;102212.00;;;10.80
22828;BMP180;11580;52.562;13.418;2023-04-03T12:15:51;102228.00;;;10.80
22828;BMP180;11580;52.562;13.418;2023-04-03T12:18:55;102212.00;;;10.70
22828;BMP180;11580;52.562;13.418;2023-04-03T12:22:14;102204.00;;;10.50
22828;BMP180;11580;52.562;13.418;2023-04-03T12:24:43;102206.00;;;10.50
22828;BMP180;11580;52.562;13.418;2023-04-03T12:27:27;102200.00;;;10.60
22828;BMP180;11580;52.562;13.418;2023-04-03T12:30:07;102198.00;;;10.70
22828;BMP180;11580;52.562;13.418;2023-04-03T12:33:02;102200.00;;;10.80
22828;BMP180;11580;52.562;13.418;2023-04-03T12:35:37;102203.00;;;10.90
22828;BMP180;11580;52.562;13.418;2023-04-03T12:38:30;102201.00;;;11.00
22828;BMP180;11580;52.562;13.418;2023-04-03T12:41:18;102197.00;;;11.10
22828;BMP180;11580;52.562;13.418;2023-04-03T12:44:03;102193.00;;;11.20
22828;BMP180;11580;52.562;13.418;2023-04-03T12:46:37;102189.00;;;11.20
22828;BMP180;11580;52.562;13.418;2023-04-03T12:49:30;102195.00;;;11.30
22828;BMP180;11580;52.562;13.418;2023-04-03T12:52:02;102186.00;;;11.20
22828;BMP180;11580;52.562;13.418;2023-04-03T12:54:35;102188.00;;;11.10
22828;BMP180;11580;52.562;13.418;2023-04-03T12:57:11;102186.00;;;11.10
22828;BMP180;11580;52.562;13.418;2023-04-03T12:59:38;102192.00;;;11.00
22828;BMP180;11580;52.562;13.418;2023-04-03T13:02:24;102174.00;;;11.00
22828;BMP180;11580;52.562;13.418;2023-04-03T13:04:55;102173.00;;;10.90
22828;BMP180;11580;52.562;13.418;2023-04-03T13:07:28;102181.00;;;10.90
22828;BMP180;11580;52.562;13.418;2023-04-03T13:10:10;102188.00;;;10.90
22828;BMP180;11580;52.562;13.418;2023-04-03T13:12:48;102173.00;;;10.80
22828;BMP180;11580;52.562;13.418;2023-04-03T13:15:18;102175.00;;;10.80
22828;BMP180;11580;52.562;13.418;2023-04-03T13:17:46;102177.00;;;10.70
22828;BMP180;11580;52.562;13.418;2023-04-03T13:20:23;102171.00;;;10.80
22828;BMP180;11580;52.562;13.418;2023-04-03T13:22:57;102175.00;;;10.80
22828;BMP180;11580;52.562;13.418;2023-04-03T13:25:31;102181.00;;;10.80
22828;BMP180;11580;52.562;13.418;2023-04-03T13:28:02;102170.00;;;10.90
22828;BMP180;11580;52.562;13.418;2023-04-03T13:30:34;102180.00;;;10.90
22828;BMP180;11580;52.562;13.418;2023-04-03T13:33:06;102172.00;;;10.90
22828;BMP180;11580;52.562;13.418;2023-04-03T13:35:38;102165.00;;;10.90
22828;BMP180;11580;52.562;13.418;2023-04-03T13:38:23;102167.00;;;10.90
22828;BMP180;11580;52.562;13.418;2023-04-03T13:40:55;102164.00;;;10.80
22828;BMP180;11580;52.562;13.418;2023-04-03T13:43:26;102193.00;;;10.80
22828;BMP180;11580;52.562;13.418;2023-04-03T13:46:04;102169.00;;;10.80
22828;BMP180;11580;52.562;13.418;2023-04-03T13:48:39;102170.00;;;10.70
22828;BMP180;11580;52.562;13.418;2023-04-03T13:51:19;102175.00;;;10.60
22828;BMP180;11580;52.562;13.418;2023-04-03T13:53:50;102173.00;;;10.50
22828;BMP180;11580;52.562;13.418;2023-04-03T13:56:26;102179.00;;;10.40
22828;BMP180;11580;52.562;13.418;2023-04-03T13:59:21;102180.00;;;10.30
22828;BMP180;11580;52.562;13.418;2023-04-03T14:01:53;102166.00;;;10.20
22828;BMP180;11580;52.562;13.418;2023-04-03T14:04:24;102156.00;;;10.20
22828;BMP180;11580;52.562;13.418;2023-04-03T14:06:53;102147.00;;;10.20
22828;BMP180;11580;52.562;13.418;2023-04-03T14:09:24;102156.00;;;10.30
22828;BMP180;11580;52.562;13.418;2023-04-03T14:11:56;102161.00;;;10.40
22828;BMP180;11580;52.562;13.418;2023-04-03T14:14:30;102146.00;;;10.50
22828;BMP180;11580;52.562;13.418;2023-04-03T14:17:01;102156.00;;;10.60
22828;BMP180;11580;52.562;13.418;2023-04-03T14:19:31;102154.00;;;10.60
22828;BMP180;11580;52.562;13.418;2023-04-03T14:22:06;102144.00;;;10.60
22828;BMP180;11580;52.562;13.418;2023-04-03T14:24:34;102149.00;;;10.50
22828;BMP180;11580;52.562;13.418;2023-04-03T14:27:02;102153.00;;;10.50
22828;BMP180;11580;52.562;13.418;2023-04-03T14:29:32;102175.00;;;10.50